Time;durP1;ratioP1;P1;durP2;ratioP2;P2;SDS_P1;SDS_P2;PMS_P1;PMS_P2;Temp;Humidity;BMP_temperature;BMP_pressure;BME280_temperature;BME280_humidity;BME280_pressure;Samples;Min_cycle;Max_cycle;Signal;HPM_P1;HPM_P2
2022/06/13 00:00:54;;;;;;;5.13;2.30;;;;;;;23.08;60.34;98975.19;5000838;28;20030;-48
2022/06/13 00:03:20;;;;;;;9.98;1.98;;;;;;;23.08;59.89;98962.63;5000740;28;20372;-49
2022/06/13 00:05:46;;;;;;;6.30;2.40;;;;;;;23.29;59.50;98965.19;5018483;28;20034;-49
2022/06/13 00:08:11;;;;;;;5.50;1.80;;;;;;;23.48;58.70;98950.09;5000716;28;20030;-49
2022/06/13 00:10:37;;;;;;;8.05;2.35;;;;;;;23.57;58.68;98952.97;5018390;28;20451;-48
2022/06/13 00:13:03;;;;;;;4.50;2.15;;;;;;;23.61;58.16;98951.31;5017089;28;20054;-49
2022/06/13 00:15:29;;;;;;;4.57;1.88;;;;;;;23.52;58.41;98948.44;5018398;28;20054;-48
2022/06/13 00:17:55;;;;;;;10.80;2.10;;;;;;;23.41;58.39;98946.09;5018106;28;20167;-49
2022/06/13 00:20:21;;;;;;;8.50;2.90;;;;;;;23.25;59.50;98946.19;5018276;28;20057;-49
2022/06/13 00:22:46;;;;;;;6.10;2.67;;;;;;;23.08;59.46;98949.25;5018310;28;20021;-49
2022/06/13 00:25:12;;;;;;;6.25;2.47;;;;;;;22.96;59.49;98947.94;5018496;28;20030;-48
2022/06/13 00:27:38;;;;;;;6.28;2.03;;;;;;;22.90;60.20;98955.22;5018174;28;20030;-48
2022/06/13 00:30:07;;;;;;;6.03;2.50;;;;;;;22.77;59.94;98956.59;5000573;28;20503;-49
2022/06/13 00:32:33;;;;;;;7.13;2.58;;;;;;;22.68;60.26;98953.69;5018203;28;20026;-49
2022/06/13 00:34:59;;;;;;;5.65;1.88;;;;;;;22.76;59.72;98960.34;5018183;28;20033;-49
2022/06/13 00:37:24;;;;;;;6.22;2.20;;;;;;;22.72;59.51;98954.72;5000510;28;20026;-48
2022/06/13 00:39:50;;;;;;;3.83;2.17;;;;;;;22.69;60.12;98954.47;5018219;28;20243;-48
2022/06/13 00:42:20;;;;;;;2.83;1.88;;;;;;;22.65;60.26;98967.59;5018051;28;20061;-49
2022/06/13 00:45:26;;;;;;;4.30;2.33;;;;;;;22.74;59.96;98971.31;5018088;28;20104;-49
2022/06/13 00:47:55;;;;;;;4.43;2.60;;;;;;;22.80;59.62;98971.28;4957422;29;20557;-48
2022/06/13 00:50:26;;;;;;;7.90;2.10;;;;;;;22.92;59.30;98980.63;4957421;28;20239;-49
2022/06/13 00:53:07;;;;;;;7.10;2.00;;;;;;;23.15;58.25;98964.22;4941382;28;20105;-49
2022/06/13 00:55:43;;;;;;;4.47;2.10;;;;;;;23.31;57.67;98966.50;4957465;29;20042;-48
2022/06/13 00:58:11;;;;;;;9.43;2.90;;;;;;;23.36;57.71;98971.03;4957388;28;20031;-49
2022/06/13 01:00:38;;;;;;;5.80;2.28;;;;;;;23.56;56.88;98972.78;4957299;28;20460;-49
2022/06/13 01:03:05;;;;;;;5.32;1.92;;;;;;;23.72;56.50;98971.59;4957384;29;20027;-50
2022/06/13 01:05:35;;;;;;;6.63;2.10;;;;;;;23.83;55.89;98967.00;4954643;28;20556;-49
2022/06/13 01:08:04;;;;;;;4.47;2.35;;;;;;;23.97;55.50;98966.34;4954204;29;20035;-49
2022/06/13 01:13:15;;;;;;;10.38;2.63;;;;;;;23.83;55.75;98958.94;4940723;29;20148;-49
2022/06/13 01:16:02;;;;;;;7.53;2.67;;;;;;;24.02;55.28;98960.94;4954088;29;20071;-48
2022/06/13 01:19:05;;;;;;;4.50;1.95;;;;;;;24.58;54.12;98951.53;4981221;28;20411;-49
2022/06/13 01:21:55;;;;;;;6.80;2.10;;;;;;;24.89;52.69;98952.78;4967059;28;20506;-49
2022/06/13 01:25:01;;;;;;;6.57;2.03;;;;;;;24.99;52.45;98954.53;5014617;28;20539;-49
2022/06/13 01:27:45;;;;;;;3.90;1.80;;;;;;;24.98;52.25;98957.50;4960593;28;20045;-48
2022/06/13 01:30:29;;;;;;;5.88;1.98;;;;;;;25.03;51.99;98949.38;4996823;28;20040;-49
2022/06/13 01:33:23;;;;;;;9.82;2.35;;;;;;;25.19;51.78;98942.69;5014466;28;20052;-49
2022/06/13 01:36:10;;;;;;;5.88;1.80;;;;;;;25.30;51.17;98938.81;4996736;28;20029;-49
2022/06/13 01:38:51;;;;;;;7.40;1.95;;;;;;;25.36;51.15;98942.22;4996721;28;20117;-49
2022/06/13 01:42:00;;;;;;;6.03;2.33;;;;;;;25.39;51.11;98936.25;5014249;28;20026;-49
2022/06/13 01:44:40;;;;;;;6.47;2.00;;;;;;;25.42;51.07;98937.56;4996597;28;20092;-48
2022/06/13 01:47:10;;;;;;;3.38;1.92;;;;;;;25.31;50.84;98931.53;5014109;28;20491;-48
2022/06/13 01:50:07;;;;;;;7.82;2.30;;;;;;;24.99;51.38;98932.22;5014006;28;20022;-49
2022/06/13 01:52:53;;;;;;;6.18;1.90;;;;;;;24.76;52.02;98937.38;5014037;28;20018;-49
2022/06/13 01:55:22;;;;;;;4.63;1.90;;;;;;;24.61;52.57;98940.22;5014053;28;20097;-49
2022/06/13 01:58:07;;;;;;;12.40;2.13;;;;;;;24.72;52.90;98936.34;4996385;28;20515;-49
2022/06/13 02:00:34;;;;;;;7.30;2.27;;;;;;;24.98;52.17;98947.56;5014131;28;20029;-47
2022/06/13 02:03:20;;;;;;;9.48;5.10;;;;;;;25.17;51.92;98944.06;5013847;28;20026;-47
2022/06/13 02:06:00;;;;;;;12.57;5.82;;;;;;;25.28;51.46;98948.25;4996250;28;20026;-47
2022/06/13 02:08:35;;;;;;;6.10;3.00;;;;;;;25.36;51.27;98942.22;4996170;28;20066;-48
2022/06/13 02:11:08;;;;;;;6.22;2.22;;;;;;;25.36;51.13;98947.59;4996922;28;20157;-47
2022/06/13 02:13:54;;;;;;;5.93;1.95;;;;;;;25.35;51.27;98953.25;4996883;28;20061;-48
2022/06/13 02:16:36;;;;;;;7.63;2.40;;;;;;;25.27;51.58;98952.84;5013041;28;20037;-49
2022/06/13 02:19:11;;;;;;;11.68;3.40;;;;;;;25.22;51.83;98950.22;5013568;28;20034;-48
2022/06/13 02:21:51;;;;;;;5.22;2.28;;;;;;;25.20;51.85;98947.00;4995917;28;20038;-47
2022/06/13 02:24:27;;;;;;;9.88;2.15;;;;;;;25.20;51.96;98948.88;4995836;28;20027;-49
2022/06/13 02:26:58;;;;;;;6.22;1.83;;;;;;;25.27;51.94;98946.66;5013414;28;20026;-49
2022/06/13 02:29:31;;;;;;;8.30;2.10;;;;;;;25.36;51.73;98944.91;4995638;28;20029;-49
2022/06/13 02:32:04;;;;;;;8.63;2.22;;;;;;;25.47;51.44;98949.06;4995665;28;20393;-49
2022/06/13 02:35:14;;;;;;;5.80;2.30;;;;;;;25.59;51.27;98943.19;5013295;28;20033;-49
2022/06/13 02:37:46;;;;;;;15.38;2.90;;;;;;;25.60;51.16;98947.50;4952556;29;20174;-49
2022/06/13 02:40:20;;;;;;;8.80;2.00;;;;;;;25.58;51.11;98943.53;4952645;29;20512;-49
2022/06/13 02:43:01;;;;;;;12.38;2.70;;;;;;;25.57;51.31;98944.59;4952516;29;20489;-49
2022/06/13 02:45:36;;;;;;;16.17;3.30;;;;;;;25.54;51.38;98951.38;4952629;29;20035;-48
2022/06/13 02:48:19;;;;;;;12.25;3.40;;;;;;;25.54;51.43;98955.94;4936367;29;20031;-49
2022/06/13 02:51:01;;;;;;;5.57;2.50;;;;;;;25.42;51.71;98957.19;4952356;29;20041;-49
2022/06/13 02:53:47;;;;;;;4.90;2.20;;;;;;;25.30;51.75;98952.25;4952498;29;20031;-49
2022/06/13 02:57:23;;;;;;;6.70;2.45;;;;;;;25.08;52.10;98952.78;4936242;29;20532;-49
2022/06/13 03:00:06;;;;;;;10.27;2.10;;;;;;;24.73;53.21;98954.06;4952182;29;20070;-49
2022/06/13 03:02:56;;;;;;;8.73;2.67;;;;;;;24.41;53.74;98957.31;4951765;29;20063;-49
2022/06/13 03:05:40;;;;;;;9.57;2.40;;;;;;;23.97;54.86;98964.47;4952259;29;20544;-49
2022/06/13 03:08:45;;;;;;;6.53;2.25;;;;;;;23.91;55.93;98961.03;4976536;28;20068;-49
2022/06/13 03:11:39;;;;;;;9.88;2.58;;;;;;;24.32;55.26;98960.63;4972637;28;20034;-49
2022/06/13 03:14:30;;;;;;;5.20;2.28;;;;;;;24.57;54.58;98957.97;4994935;28;20037;-49
2022/06/13 03:16:58;;;;;;;11.52;1.95;;;;;;;24.71;53.72;98961.59;5012176;28;20038;-48
2022/06/13 03:19:43;;;;;;;9.52;2.25;;;;;;;24.80;53.30;98951.81;4994862;28;20422;-49
2022/06/13 03:22:18;;;;;;;7.95;2.55;;;;;;;24.62;53.76;98949.88;5012457;28;20030;-49
2022/06/13 03:25:08;;;;;;;7.22;2.20;;;;;;;24.22;54.70;98955.38;4994644;28;20112;-49
2022/06/13 03:27:51;;;;;;;12.95;2.55;;;;;;;23.85;55.72;98964.81;5012294;28;20038;-49
2022/06/13 03:30:21;;;;;;;8.32;2.40;;;;;;;23.98;56.06;98957.22;5011967;28;20029;-49
2022/06/13 03:35:46;;;;;;;14.90;2.45;;;;;;;24.58;54.52;98949.66;5012598;28;20104;-49
2022/06/13 03:38:21;;;;;;;8.40;2.08;;;;;;;24.58;54.54;98957.72;4994520;28;20046;-49
2022/06/13 03:40:51;;;;;;;9.23;2.42;;;;;;;24.69;54.11;98958.41;4994556;28;20038;-49
2022/06/13 03:43:44;;;;;;;7.05;2.45;;;;;;;24.73;53.99;98970.16;5012223;28;20026;-49
2022/06/13 03:46:15;;;;;;;10.73;2.38;;;;;;;24.62;53.92;98966.00;4994326;28;20080;-49
2022/06/13 03:48:47;;;;;;;12.48;2.50;;;;;;;24.41;54.55;98970.72;4995119;28;20105;-49
2022/06/13 03:51:28;;;;;;;11.32;2.63;;;;;;;24.47;54.99;98975.00;4994451;28;20041;-49
2022/06/13 03:54:01;;;;;;;15.88;3.05;;;;;;;24.71;54.30;98980.38;5012057;28;20033;-49
2022/06/13 03:56:58;;;;;;;9.30;2.15;;;;;;;24.85;53.84;98975.91;5012043;28;20112;-49
2022/06/13 03:59:31;;;;;;;8.75;2.78;;;;;;;24.82;53.56;98981.84;5012028;28;20030;-49
2022/06/13 04:02:04;;;;;;;12.50;2.53;;;;;;;24.95;53.51;98984.91;5012031;28;20026;-48
2022/06/13 04:04:41;;;;;;;7.28;2.60;;;;;;;24.92;53.10;98984.41;5012028;28;20180;-49
2022/06/13 04:07:07;;;;;;;8.55;2.40;;;;;;;24.40;53.39;98988.72;4994328;28;20127;-47
2022/06/13 04:09:47;;;;;;;5.45;2.15;;;;;;;23.72;55.48;98992.22;5011787;28;20054;-47
2022/06/13 04:12:16;;;;;;;15.07;3.03;;;;;;;23.61;56.32;98988.84;4994226;28;20164;-47
2022/06/13 04:14:44;;;;;;;9.77;2.92;;;;;;;23.81;55.97;98989.81;4994223;28;20034;-47
2022/06/13 04:17:20;;;;;;;13.07;2.55;;;;;;;24.08;55.63;98983.94;4990594;28;20046;-47
2022/06/13 04:19:55;;;;;;;6.90;2.75;;;;;;;24.39;55.17;98987.13;4990905;28;20062;-47
2022/06/13 04:22:42;;;;;;;7.97;2.70;;;;;;;24.81;54.34;98996.38;4992257;28;20030;-47
2022/06/13 04:25:20;;;;;;;14.63;3.05;;;;;;;25.35;52.90;98991.66;4992240;28;20053;-47
2022/06/13 04:28:09;;;;;;;10.43;2.78;;;;;;;25.83;51.36;98996.06;4992038;28;20069;-47
2022/06/13 04:30:37;;;;;;;13.05;4.88;;;;;;;26.15;50.44;99006.06;4992127;28;20118;-49
2022/06/13 04:33:08;;;;;;;14.82;6.57;;;;;;;26.35;49.71;99010.28;4992101;28;20089;-48
2022/06/13 04:35:36;;;;;;;10.68;5.20;;;;;;;26.63;48.86;99004.97;4992112;28;20073;-47
2022/06/13 04:38:09;;;;;;;7.82;2.78;;;;;;;26.93;48.39;99013.53;4991964;28;20034;-49
2022/06/13 04:40:39;;;;;;;8.30;2.33;;;;;;;27.10;47.80;99013.72;4994298;28;20391;-49
2022/06/13 04:43:09;;;;;;;9.15;2.63;;;;;;;27.10;47.57;99014.53;4994421;28;20033;-49
2022/06/13 04:46:03;;;;;;;12.63;2.65;;;;;;;27.46;47.18;99013.75;4995709;28;20396;-49
2022/06/13 04:48:31;;;;;;;9.32;2.70;;;;;;;27.79;46.26;99012.75;4995658;28;20102;-49
2022/06/13 04:51:05;;;;;;;16.70;2.83;;;;;;;28.20;45.26;99017.19;4994222;28;20084;-49
2022/06/13 04:53:38;;;;;;;11.25;3.17;;;;;;;28.87;43.69;99017.00;4994297;28;20066;-49
2022/06/13 04:56:04;;;;;;;8.23;2.45;;;;;;;29.22;42.98;99022.53;4978585;28;20031;-49
2022/06/13 04:58:31;;;;;;;12.77;2.67;;;;;;;29.30;42.82;99017.44;4994149;28;20045;-48
2022/06/13 05:01:06;;;;;;;10.35;2.97;;;;;;;29.89;41.50;99025.13;4995304;28;20511;-49
2022/06/13 05:03:38;;;;;;;8.15;2.10;;;;;;;30.35;40.44;99026.31;4994070;28;20037;-49
2022/06/13 05:06:41;;;;;;;13.75;2.50;;;;;;;30.66;39.64;99029.53;4995348;28;20061;-49
2022/06/13 05:09:10;;;;;;;21.08;4.97;;;;;;;30.85;39.30;99031.06;4992235;28;20126;-48
2022/06/13 05:11:41;;;;;;;10.20;2.42;;;;;;;30.58;39.27;99027.66;4995221;28;20073;-49
2022/06/13 05:14:20;;;;;;;12.38;2.72;;;;;;;29.90;40.29;99034.81;4995236;28;20030;-49
2022/06/13 05:17:05;;;;;;;8.98;2.65;;;;;;;29.17;41.97;99036.19;4998954;28;20074;-49
2022/06/13 05:19:39;;;;;;;9.75;2.35;;;;;;;28.75;43.07;99043.03;5014617;28;20026;-48
2022/06/13 05:22:15;;;;;;;;;;;;;;;28.57;43.17;99036.75;4997418;28;20041;-49
2022/06/13 05:25:10;;;;;;;9.65;2.58;;;;;;;28.29;43.72;99047.69;5014677;28;19913;-49
2022/06/13 05:27:36;;;;;;;10.70;2.35;;;;;;;27.92;44.39;99059.69;5012494;28;20034;-49
2022/06/13 05:30:02;;;;;;;10.23;2.78;;;;;;;27.61;45.07;99065.78;5014462;28;20041;-49
2022/06/13 05:32:27;;;;;;;5.63;2.00;;;;;;;27.46;45.68;99075.75;5014424;28;20026;-48
2022/06/13 05:34:54;;;;;;;6.95;2.17;;;;;;;27.69;45.39;99071.22;5013053;28;20380;-48
2022/06/13 05:37:23;;;;;;;14.43;3.00;;;;;;;27.97;44.74;99079.25;5014351;28;20021;-47
2022/06/13 05:39:49;;;;;;;9.48;3.17;;;;;;;28.20;44.42;99071.16;5014307;28;20029;-47
2022/06/13 05:42:15;;;;;;;10.65;2.22;;;;;;;28.39;44.01;99076.34;5014221;28;20030;-47
2022/06/13 05:44:41;;;;;;;10.52;2.58;;;;;;;28.42;43.72;99084.63;5014191;28;20030;-47
2022/06/13 05:47:17;;;;;;;9.43;2.30;;;;;;;28.21;43.82;99097.84;4996524;28;20049;-49
2022/06/13 05:49:44;;;;;;;13.23;2.95;;;;;;;28.18;43.89;99101.16;5014086;28;20030;-49
2022/06/13 05:52:11;;;;;;;12.10;2.60;;;;;;;28.05;44.35;99085.81;4995733;28;20022;-50
2022/06/13 05:54:36;;;;;;;15.05;2.95;;;;;;;27.78;45.07;99100.16;5014007;28;20106;-47
2022/06/13 05:57:02;;;;;;;11.85;2.70;;;;;;;27.24;45.62;99095.34;5013965;28;20041;-47
2022/06/13 05:59:28;;;;;;;13.10;2.60;;;;;;;26.91;46.41;99100.03;5013885;28;20037;-47
2022/06/13 06:01:54;;;;;;;14.48;3.63;;;;;;;26.90;47.10;99103.81;5013798;28;20026;-47
2022/06/13 06:04:22;;;;;;;11.82;3.20;;;;;;;26.97;46.81;99090.75;5013861;28;20040;-48
2022/06/13 06:06:48;;;;;;;6.03;2.33;;;;;;;26.90;46.76;99083.06;5013761;28;20422;-47
2022/06/13 06:09:14;;;;;;;12.30;3.00;;;;;;;26.86;47.31;99089.34;5013670;28;20068;-47
2022/06/13 06:11:40;;;;;;;13.60;2.83;;;;;;;26.95;47.00;99086.78;4996083;28;20065;-47
2022/06/13 06:14:07;;;;;;;12.15;3.42;;;;;;;27.07;47.00;99093.25;4995982;28;20496;-47
2022/06/13 06:16:33;;;;;;;15.23;2.85;;;;;;;27.13;46.42;99093.16;5013264;28;20017;-49
2022/06/13 06:18:59;;;;;;;8.70;3.38;;;;;;;27.21;46.20;99098.63;5013606;28;20045;-48
2022/06/13 06:21:25;;;;;;;10.52;2.40;;;;;;;27.12;46.56;99097.72;5013477;28;20026;-47
2022/06/13 06:23:51;;;;;;;6.43;2.00;;;;;;;26.99;46.61;99104.72;5013455;28;20557;-47
2022/06/13 06:26:27;;;;;;;7.70;2.80;;;;;;;27.01;46.76;99099.84;4995745;28;20093;-47
2022/06/13 06:28:53;;;;;;;11.75;2.63;;;;;;;27.25;46.20;99106.94;5013540;28;20033;-47
2022/06/13 06:31:19;;;;;;;8.32;2.65;;;;;;;27.47;45.69;99108.94;5013227;28;20029;-48
2022/06/13 06:33:45;;;;;;;8.52;2.13;;;;;;;27.60;45.58;99102.69;5013192;28;20022;-47
2022/06/13 06:36:12;;;;;;;10.82;3.05;;;;;;;27.60;45.14;99105.41;5013211;28;20105;-46
2022/06/13 06:38:39;;;;;;;13.80;2.25;;;;;;;27.61;45.17;99103.53;5013104;28;20034;-47
2022/06/13 06:41:05;;;;;;;15.27;2.38;;;;;;;28.02;44.59;99106.09;5013045;28;20029;-48
2022/06/13 06:43:30;;;;;;;12.80;2.55;;;;;;;28.48;43.43;99101.50;5013317;28;20447;-46
2022/06/13 06:45:57;;;;;;;15.43;2.50;;;;;;;28.81;42.59;99102.00;5013284;28;20029;-47
2022/06/13 06:48:24;;;;;;;13.07;2.17;;;;;;;29.03;41.64;99111.16;5012938;28;20068;-47
2022/06/13 06:50:51;;;;;;;15.90;2.80;;;;;;;29.13;41.42;99127.13;4995301;28;20029;-48
2022/06/13 06:53:20;;;;;;;9.05;2.35;;;;;;;29.18;41.12;99124.28;5012951;28;20498;-49
2022/06/13 07:01:18;;;;;;;10.30;3.00;;;;;;;29.78;39.59;99130.16;5012853;28;20104;-46
2022/06/13 07:03:45;;;;;;;13.23;2.50;;;;;;;29.82;39.54;99131.13;5011810;28;20036;-47
2022/06/13 07:06:12;;;;;;;12.55;2.25;;;;;;;30.59;38.24;99128.72;5012641;28;20112;-47
2022/06/13 07:08:38;;;;;;;11.50;2.10;;;;;;;32.38;35.29;99134.88;5012480;28;20033;-49
2022/06/13 07:13:52;;;;;;;10.35;1.90;;;;;;;35.66;29.57;99127.50;5012917;28;20611;-48
2022/06/13 07:16:18;;;;;;;6.60;2.05;;;;;;;36.15;28.72;99124.22;5012397;28;20104;-47
2022/06/13 07:18:45;;;;;;;11.98;2.47;;;;;;;37.11;26.89;99129.00;5012493;28;20018;-48
2022/06/13 07:21:12;;;;;;;8.93;2.20;;;;;;;36.71;27.17;99135.78;5012411;28;20018;-49
2022/06/13 07:23:39;;;;;;;7.40;2.35;;;;;;;35.54;28.95;99133.06;5012414;28;20030;-50
2022/06/13 07:26:05;;;;;;;8.45;2.40;;;;;;;34.96;29.75;99134.44;4994721;28;20491;-49
2022/06/13 07:28:30;;;;;;;13.90;5.03;;;;;;;35.19;29.37;99126.47;5010932;28;20141;-49
2022/06/13 07:30:56;;;;;;;13.93;2.75;;;;;;;35.63;28.87;99135.59;4994692;28;20026;-49
2022/06/13 07:33:24;;;;;;;10.52;2.60;;;;;;;36.32;27.96;99127.63;4978567;28;20438;-49
2022/06/13 07:35:50;;;;;;;9.68;2.35;;;;;;;35.79;28.10;99128.94;5012227;28;20054;-48
2022/06/13 07:38:18;;;;;;;7.38;2.58;;;;;;;35.73;28.25;99124.91;5012220;28;20399;-48
2022/06/13 07:40:54;;;;;;;15.80;5.60;;;;;;;36.72;27.09;99124.47;5012086;28;20080;-48
2022/06/13 07:43:31;;;;;;;15.00;4.32;;;;;;;37.87;25.67;99122.63;5012221;28;20020;-48
2022/06/13 07:45:59;;;;;;;12.75;2.10;;;;;;;38.78;24.38;99131.47;4994578;28;20120;-48
2022/06/13 07:48:27;;;;;;;16.08;2.65;;;;;;;39.29;23.42;99127.13;5011959;28;20022;-47
2022/06/13 07:50:53;;;;;;;7.90;2.38;;;;;;;39.82;22.40;99131.34;5012083;28;20144;-48
2022/06/13 07:53:19;;;;;;;20.00;2.80;;;;;;;40.83;21.67;99135.94;5012290;28;20049;-49
2022/06/13 07:55:44;;;;;;;9.70;1.90;;;;;;;41.67;20.37;99140.16;5011989;28;20072;-49
2022/06/13 07:58:17;;;;;;;12.05;1.95;;;;;;;42.36;19.36;99132.31;5012033;28;20495;-49
2022/06/13 08:00:45;;;;;;;13.98;1.88;;;;;;;42.73;19.07;99134.44;5011971;28;20091;-50
2022/06/13 08:03:19;;;;;;;10.55;2.50;;;;;;;42.86;18.53;99134.75;5011911;28;20072;-51
2022/06/13 08:05:45;;;;;;;11.07;2.88;;;;;;;42.78;18.80;99125.69;4994997;28;20026;-50
2022/06/13 08:08:11;;;;;;;7.57;2.20;;;;;;;42.07;19.24;99127.00;5011858;28;20049;-50
2022/06/13 08:10:38;;;;;;;13.57;2.95;;;;;;;39.86;21.30;99129.41;5012076;28;20089;-50
2022/06/13 08:13:04;;;;;;;25.92;2.80;;;;;;;38.07;23.26;99132.28;4994241;28;20120;-48
2022/06/13 08:15:30;;;;;;;34.10;5.15;;;;;;;36.94;24.44;99135.78;4996143;28;20030;-49
2022/06/13 08:17:56;;;;;;;20.80;3.45;;;;;;;36.39;25.61;99136.00;5015554;28;20046;-50
2022/06/13 08:20:23;;;;;;;18.45;3.30;;;;;;;37.62;24.57;99128.59;5015723;28;20025;-49
2022/06/13 08:22:49;;;;;;;20.10;3.75;;;;;;;39.34;22.99;99124.81;5015667;28;20018;-49
2022/06/13 08:25:22;;;;;;;29.48;8.48;;;;;;;40.59;21.24;99134.72;5015667;28;20018;-50
2022/06/13 08:27:48;;;;;;;27.38;6.43;;;;;;;41.77;19.85;99122.00;5015533;28;20022;-52
2022/06/13 08:30:14;;;;;;;19.83;3.22;;;;;;;41.55;20.11;99127.56;4997924;28;20037;-52
2022/06/13 08:32:41;;;;;;;14.88;4.70;;;;;;;41.86;19.48;99125.88;4997903;28;20018;-51
2022/06/13 08:35:07;;;;;;;9.18;4.10;;;;;;;42.25;19.09;99122.13;4997824;28;20116;-50
2022/06/13 08:37:33;;;;;;;34.22;7.80;;;;;;;42.56;19.01;99122.34;5015421;28;20022;-51
2022/06/13 08:39:58;;;;;;;26.95;4.10;;;;;;;43.11;18.36;99126.22;5015377;28;20562;-53
2022/06/13 08:42:33;;;;;;;15.27;3.40;;;;;;;43.03;18.35;99122.75;5015331;28;20078;-52
2022/06/13 08:45:21;;;;;;;16.20;3.17;;;;;;;42.49;19.17;99120.41;5015393;28;20381;-50
2022/06/13 08:48:15;;;;;;;10.35;3.00;;;;;;;42.68;18.85;99126.56;5015238;28;20452;-52
2022/06/13 08:51:08;;;;;;;15.40;3.10;;;;;;;43.01;18.68;99133.41;5004566;28;20121;-50
2022/06/13 08:53:51;;;;;;;14.38;2.78;;;;;;;43.04;18.28;99129.81;5015242;28;20029;-51
2022/06/13 08:56:20;;;;;;;15.10;3.00;;;;;;;43.35;18.12;99115.34;4997528;28;20042;-50
2022/06/13 08:59:22;;;;;;;11.27;2.42;;;;;;;43.46;17.87;99130.59;4997372;28;20034;-50
2022/06/13 09:02:11;;;;;;;4.93;2.10;;;;;;;43.68;18.17;99135.91;5015012;28;20026;-50
2022/06/13 09:05:03;;;;;;;16.38;4.18;;;;;;;44.07;17.82;99126.31;5014904;28;20026;-51
2022/06/13 09:08:11;;;;;;;15.35;2.90;;;;;;;44.41;17.29;99125.41;5014965;28;20112;-51
2022/06/13 09:10:50;;;;;;;16.88;2.72;;;;;;;44.14;17.37;99126.22;5014795;28;20490;-51
2022/06/13 09:13:32;;;;;;;9.73;2.10;;;;;;;44.34;17.17;99131.84;5014894;28;20395;-51
2022/06/13 09:16:30;;;;;;;8.40;2.30;;;;;;;43.76;17.52;99122.78;5014785;28;20502;-50
2022/06/13 09:19:03;;;;;;;11.95;2.15;;;;;;;43.33;18.04;99124.06;4997061;28;20045;-51
2022/06/13 09:21:54;;;;;;;15.10;2.80;;;;;;;43.50;17.93;99119.50;5014709;28;20041;-52
2022/06/13 09:24:41;;;;;;;7.57;2.00;;;;;;;43.56;17.84;99120.59;5014722;28;20380;-51
2022/06/13 09:27:28;;;;;;;9.43;2.42;;;;;;;43.33;18.16;99120.47;5013449;28;20104;-52
2022/06/13 09:30:05;;;;;;;16.95;2.53;;;;;;;43.31;17.95;99118.16;4996821;28;20106;-50
2022/06/13 09:32:36;;;;;;;7.05;2.30;;;;;;;43.16;18.49;99114.72;5014460;28;20033;-51
2022/06/13 09:35:24;;;;;;;6.65;2.00;;;;;;;42.66;19.00;99126.19;4996851;28;20041;-52
2022/06/13 09:37:59;;;;;;;11.02;2.17;;;;;;;42.60;18.89;99117.59;5014417;28;20108;-52
2022/06/13 09:40:36;;;;;;;12.32;2.25;;;;;;;42.59;18.88;99118.78;5014351;28;20041;-51
2022/06/13 09:43:14;;;;;;;7.72;1.75;;;;;;;42.49;18.60;99114.13;5014332;28;20384;-51
2022/06/13 09:46:09;;;;;;;7.13;2.00;;;;;;;42.18;18.97;99105.66;5014524;28;20030;-51
2022/06/13 09:48:52;;;;;;;4.95;1.80;;;;;;;42.18;19.19;99111.16;4996398;28;20022;-51
2022/06/13 09:51:43;;;;;;;30.92;3.55;;;;;;;42.38;19.19;99105.09;4996547;28;20116;-49
2022/06/13 09:54:21;;;;;;;21.20;2.75;;;;;;;42.35;19.22;99103.94;5014386;28;20443;-47
2022/06/13 09:57:01;;;;;;;9.13;2.30;;;;;;;42.60;18.91;99106.56;4996408;28;20488;-50
2022/06/13 09:59:49;;;;;;;11.38;2.20;;;;;;;42.89;17.96;99098.81;5013932;28;20495;-50
2022/06/13 10:02:31;;;;;;;10.88;1.98;;;;;;;42.90;17.91;99091.31;5013893;28;20029;-49
2022/06/13 10:05:18;;;;;;;6.68;1.65;;;;;;;42.27;18.53;99105.97;5013977;28;20507;-50
2022/06/13 10:08:08;;;;;;;10.57;1.90;;;;;;;41.75;19.10;99108.59;4996165;28;20041;-50
2022/06/13 10:11:00;;;;;;;16.70;2.60;;;;;;;41.82;19.59;99111.34;5013726;28;20025;-50
2022/06/13 10:13:44;;;;;;;6.45;2.00;;;;;;;41.77;19.45;99114.50;5013640;28;20116;-52
2022/06/13 10:16:18;;;;;;;8.52;1.65;;;;;;;41.57;19.14;99099.59;5013961;28;20072;-50
2022/06/13 10:18:58;;;;;;;5.22;1.60;;;;;;;41.23;19.64;99091.84;5013664;28;20045;-48
2022/06/13 10:21:34;;;;;;;9.77;2.00;;;;;;;41.29;19.52;99087.50;4995879;28;20030;-51
2022/06/13 10:24:21;;;;;;;7.95;2.28;;;;;;;40.85;20.26;99086.78;5013558;28;20523;-52
2022/06/13 10:27:05;;;;;;;7.72;2.08;;;;;;;41.19;19.76;99082.81;4995734;28;20639;-51
2022/06/13 10:29:33;;;;;;;6.30;1.75;;;;;;;40.97;19.50;99080.09;4995718;28;20109;-51
2022/06/13 10:32:26;;;;;;;5.90;1.90;;;;;;;40.34;19.83;99088.72;5013353;28;20030;-51
2022/06/13 10:35:17;;;;;;;12.73;2.15;;;;;;;40.12;20.75;99081.59;5013344;28;20109;-50
2022/06/13 10:38:12;;;;;;;6.40;1.92;;;;;;;40.37;20.07;99084.41;4975882;28;20041;-50
2022/06/13 10:40:40;;;;;;;7.50;2.17;;;;;;;40.33;20.30;99078.91;4991057;28;20045;-51
2022/06/13 10:43:07;;;;;;;10.77;2.80;;;;;;;39.99;20.52;99083.16;5013025;28;20084;-51
2022/06/13 10:45:35;;;;;;;21.42;3.38;;;;;;;39.68;20.40;99080.66;4995375;28;20026;-50
2022/06/13 10:48:09;;;;;;;20.58;3.00;;;;;;;39.77;20.47;99080.28;5013000;28;20030;-51
2022/06/13 10:50:46;;;;;;;;;;;;;;;39.71;20.10;99079.88;4995748;28;20396;-49
2022/06/13 10:53:19;;;;;;;36.38;3.67;;;;;;;39.84;20.33;99083.06;5013166;28;20008;-50
2022/06/13 10:55:51;;;;;;;23.08;3.38;;;;;;;40.10;20.05;99081.97;5012943;28;20021;-49
2022/06/13 10:58:40;;;;;;;16.70;2.20;;;;;;;40.11;19.40;99077.28;5013156;28;20045;-50
2022/06/13 11:01:10;;;;;;;28.67;4.07;;;;;;;39.94;20.31;99068.59;5012815;28;20029;-51
2022/06/13 11:03:40;;;;;;;17.05;3.63;;;;;;;39.68;20.10;99077.91;5012689;28;20022;-49
2022/06/13 11:06:14;;;;;;;19.30;2.42;;;;;;;40.01;19.67;99075.28;5012794;28;20022;-50
2022/06/13 11:08:41;;;;;;;11.73;1.98;;;;;;;40.23;19.78;99068.66;5012931;28;20462;-50
2022/06/13 11:11:15;;;;;;;12.40;2.10;;;;;;;40.36;19.43;99066.31;5012650;28;20122;-52
2022/06/13 11:13:50;;;;;;;14.07;2.28;;;;;;;39.77;19.15;99061.06;5012646;28;20030;-50
2022/06/13 11:22:37;;;;;;;8.23;1.50;;;;;;;39.76;19.19;99056.72;5012734;28;20391;-51
2022/06/13 11:25:19;;;;;;;14.30;2.65;;;;;;;39.41;20.25;99062.88;4994783;28;20491;-51
2022/06/13 11:27:58;;;;;;;10.13;1.83;;;;;;;39.66;19.71;99054.72;4994685;28;20120;-49
2022/06/13 11:30:27;;;;;;;6.10;1.77;;;;;;;39.42;19.62;99048.78;5012398;28;20034;-49
2022/06/13 11:33:03;;;;;;;3.92;1.92;;;;;;;39.02;20.59;99045.03;4994698;28;20025;-50
2022/06/13 11:35:38;;;;;;;11.35;1.85;;;;;;;38.63;20.46;99050.97;5012302;28;20403;-50
2022/06/13 11:38:21;;;;;;;9.38;2.00;;;;;;;38.32;20.62;99047.56;5012501;28;20414;-47
2022/06/13 11:41:10;;;;;;;11.05;2.50;;;;;;;38.52;20.40;99041.91;4994694;28;20036;-48
2022/06/13 11:43:59;;;;;;;12.02;2.13;;;;;;;38.48;20.72;99041.84;5002723;28;20042;-48
2022/06/13 11:46:28;;;;;;;27.80;3.55;;;;;;;38.76;20.76;99032.28;5012135;28;20033;-50
2022/06/13 11:49:19;;;;;;;20.35;4.15;;;;;;;38.89;20.20;99028.03;4994266;28;20026;-49
2022/06/13 11:52:01;;;;;;;38.95;4.38;;;;;;;38.95;20.49;99039.44;5012122;28;20041;-49
2022/06/13 11:54:57;;;;;;;45.92;4.05;;;;;;;38.95;19.99;99023.75;5012141;28;20034;-49
2022/06/13 11:57:54;;;;;;;31.05;3.88;;;;;;;38.48;20.94;99008.94;5012250;28;20513;-48
2022/06/13 12:00:19;;;;;;;30.45;3.70;;;;;;;38.33;20.55;99020.94;5011200;28;20033;-48
2022/06/13 12:02:47;;;;;;;16.35;2.72;;;;;;;38.05;20.54;99026.91;5012028;28;20096;-48
2022/06/13 12:05:39;;;;;;;33.97;10.60;;;;;;;37.92;21.25;99024.47;4994292;28;20053;-49
2022/06/13 12:08:23;;;;;;;23.13;3.20;;;;;;;38.03;20.67;99024.56;5012123;28;20117;-48
2022/06/13 12:10:57;;;;;;;25.60;3.00;;;;;;;38.14;20.80;99030.19;5011965;28;20049;-49
2022/06/13 12:13:23;;;;;;;18.02;3.47;;;;;;;38.63;20.33;99022.78;5011841;28;20313;-46
2022/06/13 12:16:11;;;;;;;14.30;2.08;;;;;;;38.30;20.34;99027.19;4994195;28;20041;-47
2022/06/13 12:18:59;;;;;;;18.23;2.90;;;;;;;37.93;20.95;99036.19;4994466;28;20100;-48
2022/06/13 12:21:38;;;;;;;12.68;2.10;;;;;;;37.96;20.83;99030.75;5011816;28;20026;-48
2022/06/13 12:24:18;;;;;;;8.68;2.13;;;;;;;38.00;20.76;99035.50;5011857;28;20034;-48
2022/06/13 12:27:06;;;;;;;18.88;2.30;;;;;;;37.69;21.53;99029.28;5011819;28;20050;-47
2022/06/13 12:29:48;;;;;;;12.77;2.08;;;;;;;37.29;21.32;99017.84;5011990;28;20396;-47